sensor_id;sensor_type;location;lat;lon;timestamp;P1;durP1;ratioP1;P2;durP2;ratioP2
52708;SDS011;38606;52.986;6.980;2022-11-11T00:00:45;15.85;;;6.10;;
52708;SDS011;38606;52.986;6.980;2022-11-11T00:03:10;17.80;;;6.55;;
52708;SDS011;38606;52.986;6.980;2022-11-11T00:05:36;12.90;;;6.13;;
52708;SDS011;38606;52.986;6.980;2022-11-11T00:08:02;14.60;;;5.70;;
52708;SDS011;38606;52.986;6.980;2022-11-11T00:10:28;15.05;;;6.43;;
52708;SDS011;38606;52.986;6.980;2022-11-11T00:12:58;17.33;;;6.50;;
52708;SDS011;38606;52.986;6.980;2022-11-11T00:15:25;12.95;;;6.18;;
52708;SDS011;38606;52.986;6.980;2022-11-11T00:17:52;12.23;;;5.85;;
52708;SDS011;38606;52.986;6.980;2022-11-11T00:20:36;18.05;;;6.28;;
52708;SDS011;38606;52.986;6.980;2022-11-11T00:23:21;15.57;;;5.90;;
52708;SDS011;38606;52.986;6.980;2022-11-11T00:26:06;13.63;;;6.07;;
52708;SDS011;38606;52.986;6.980;2022-11-11T00:28:33;7.68;;;5.40;;
52708;SDS011;38606;52.986;6.980;2022-11-11T00:31:00;15.13;;;5.80;;
52708;SDS011;38606;52.986;6.980;2022-11-11T00:33:44;17.42;;;6.50;;
52708;SDS011;38606;52.986;6.980;2022-11-11T00:36:09;15.63;;;7.15;;
52708;SDS011;38606;52.986;6.980;2022-11-11T00:38:35;16.80;;;6.15;;
52708;SDS011;38606;52.986;6.980;2022-11-11T00:41:14;15.98;;;6.18;;
52708;SDS011;38606;52.986;6.980;2022-11-11T00:43:41;16.25;;;7.03;;
52708;SDS011;38606;52.986;6.980;2022-11-11T00:46:08;13.30;;;6.57;;
52708;SDS011;38606;52.986;6.980;2022-11-11T00:48:52;13.10;;;6.78;;
52708;SDS011;38606;52.986;6.980;2022-11-11T00:51:36;17.25;;;6.75;;
52708;SDS011;38606;52.986;6.980;2022-11-11T00:54:03;15.20;;;7.30;;
52708;SDS011;38606;52.986;6.980;2022-11-11T00:56:29;15.07;;;7.03;;
52708;SDS011;38606;52.986;6.980;2022-11-11T00:58:54;12.85;;;6.88;;
52708;SDS011;38606;52.986;6.980;2022-11-11T01:01:20;15.95;;;7.18;;
52708;SDS011;38606;52.986;6.980;2022-11-11T01:03:46;16.35;;;7.15;;
52708;SDS011;38606;52.986;6.980;2022-11-11T01:06:12;12.15;;;6.63;;
52708;SDS011;38606;52.986;6.980;2022-11-11T01:08:41;17.42;;;7.38;;
52708;SDS011;38606;52.986;6.980;2022-11-11T01:11:16;16.33;;;7.53;;
52708;SDS011;38606;52.986;6.980;2022-11-11T01:13:44;15.23;;;7.63;;
52708;SDS011;38606;52.986;6.980;2022-11-11T01:16:11;17.70;;;7.90;;
52708;SDS011;38606;52.986;6.980;2022-11-11T01:18:39;14.02;;;7.25;;
52708;SDS011;38606;52.986;6.980;2022-11-11T01:21:26;15.13;;;8.13;;
52708;SDS011;38606;52.986;6.980;2022-11-11T01:23:51;18.50;;;7.57;;
52708;SDS011;38606;52.986;6.980;2022-11-11T01:26:19;17.58;;;8.10;;
52708;SDS011;38606;52.986;6.980;2022-11-11T01:28:50;15.98;;;7.38;;
52708;SDS011;38606;52.986;6.980;2022-11-11T01:31:17;17.17;;;8.20;;
52708;SDS011;38606;52.986;6.980;2022-11-11T01:33:44;14.85;;;7.43;;
52708;SDS011;38606;52.986;6.980;2022-11-11T01:36:11;17.05;;;7.85;;
52708;SDS011;38606;52.986;6.980;2022-11-11T01:38:39;18.55;;;8.60;;
52708;SDS011;38606;52.986;6.980;2022-11-11T01:41:07;12.40;;;7.93;;
52708;SDS011;38606;52.986;6.980;2022-11-11T01:43:54;13.73;;;8.02;;
52708;SDS011;38606;52.986;6.980;2022-11-11T01:46:25;16.98;;;8.18;;
52708;SDS011;38606;52.986;6.980;2022-11-11T01:49:17;17.17;;;8.77;;
52708;SDS011;38606;52.986;6.980;2022-11-11T01:57:03;16.98;;;9.43;;
52708;SDS011;38606;52.986;6.980;2022-11-11T01:59:34;19.33;;;9.18;;
52708;SDS011;38606;52.986;6.980;2022-11-11T02:02:05;20.42;;;9.13;;
52708;SDS011;38606;52.986;6.980;2022-11-11T02:04:36;20.23;;;11.35;;
52708;SDS011;38606;52.986;6.980;2022-11-11T02:07:20;20.88;;;9.82;;
52708;SDS011;38606;52.986;6.980;2022-11-11T02:09:47;20.15;;;10.85;;
52708;SDS011;38606;52.986;6.980;2022-11-11T02:12:15;21.08;;;11.32;;
52708;SDS011;38606;52.986;6.980;2022-11-11T02:14:59;24.05;;;10.70;;
52708;SDS011;38606;52.986;6.980;2022-11-11T02:17:26;19.27;;;11.07;;
52708;SDS011;38606;52.986;6.980;2022-11-11T02:19:55;19.48;;;11.15;;
52708;SDS011;38606;52.986;6.980;2022-11-11T02:22:28;20.52;;;11.50;;
52708;SDS011;38606;52.986;6.980;2022-11-11T02:24:56;25.70;;;11.30;;
52708;SDS011;38606;52.986;6.980;2022-11-11T02:27:23;19.67;;;11.32;;
52708;SDS011;38606;52.986;6.980;2022-11-11T02:29:52;18.55;;;11.30;;
52708;SDS011;38606;52.986;6.980;2022-11-11T02:32:20;19.73;;;11.65;;
52708;SDS011;38606;52.986;6.980;2022-11-11T02:34:46;20.27;;;11.98;;
52708;SDS011;38606;52.986;6.980;2022-11-11T02:37:12;18.40;;;12.00;;
52708;SDS011;38606;52.986;6.980;2022-11-11T02:39:43;24.73;;;12.65;;
52708;SDS011;38606;52.986;6.980;2022-11-11T02:42:11;20.65;;;12.93;;
52708;SDS011;38606;52.986;6.980;2022-11-11T02:44:38;21.08;;;12.20;;
52708;SDS011;38606;52.986;6.980;2022-11-11T02:47:04;25.45;;;12.43;;
52708;SDS011;38606;52.986;6.980;2022-11-11T02:49:30;23.88;;;13.00;;
52708;SDS011;38606;52.986;6.980;2022-11-11T02:51:56;25.60;;;12.82;;
52708;SDS011;38606;52.986;6.980;2022-11-11T02:54:22;19.17;;;12.23;;
52708;SDS011;38606;52.986;6.980;2022-11-11T02:56:48;23.90;;;14.05;;
52708;SDS011;38606;52.986;6.980;2022-11-11T02:59:33;24.15;;;13.50;;
52708;SDS011;38606;52.986;6.980;2022-11-11T03:02:00;26.45;;;14.13;;
52708;SDS011;38606;52.986;6.980;2022-11-11T03:04:25;22.92;;;14.10;;
52708;SDS011;38606;52.986;6.980;2022-11-11T03:06:51;26.33;;;13.40;;
52708;SDS011;38606;52.986;6.980;2022-11-11T03:09:17;26.02;;;14.38;;
52708;SDS011;38606;52.986;6.980;2022-11-11T03:11:43;23.67;;;14.50;;
52708;SDS011;38606;52.986;6.980;2022-11-11T03:14:08;24.85;;;15.00;;
52708;SDS011;38606;52.986;6.980;2022-11-11T03:16:34;25.02;;;14.63;;
52708;SDS011;38606;52.986;6.980;2022-11-11T03:19:18;25.05;;;15.90;;
52708;SDS011;38606;52.986;6.980;2022-11-11T03:21:44;33.72;;;17.08;;
52708;SDS011;38606;52.986;6.980;2022-11-11T03:24:10;24.35;;;15.93;;
52708;SDS011;38606;52.986;6.980;2022-11-11T03:26:36;26.42;;;16.00;;
52708;SDS011;38606;52.986;6.980;2022-11-11T03:29:02;28.73;;;17.50;;
52708;SDS011;38606;52.986;6.980;2022-11-11T03:31:28;32.67;;;15.85;;
52708;SDS011;38606;52.986;6.980;2022-11-11T03:33:54;30.15;;;17.25;;
52708;SDS011;38606;52.986;6.980;2022-11-11T03:36:20;25.80;;;16.65;;
52708;SDS011;38606;52.986;6.980;2022-11-11T03:39:05;28.60;;;17.63;;
52708;SDS011;38606;52.986;6.980;2022-11-11T03:41:31;32.47;;;16.60;;
52708;SDS011;38606;52.986;6.980;2022-11-11T03:43:57;30.80;;;18.77;;
52708;SDS011;38606;52.986;6.980;2022-11-11T03:46:22;32.35;;;16.98;;
52708;SDS011;38606;52.986;6.980;2022-11-11T03:48:48;32.42;;;17.42;;
52708;SDS011;38606;52.986;6.980;2022-11-11T03:51:14;31.92;;;18.27;;
52708;SDS011;38606;52.986;6.980;2022-11-11T03:53:39;32.63;;;17.38;;
52708;SDS011;38606;52.986;6.980;2022-11-11T03:56:05;28.63;;;17.77;;
52708;SDS011;38606;52.986;6.980;2022-11-11T03:58:31;30.77;;;17.65;;
52708;SDS011;38606;52.986;6.980;2022-11-11T04:00:57;29.23;;;18.02;;
52708;SDS011;38606;52.986;6.980;2022-11-11T04:03:22;30.80;;;18.50;;
52708;SDS011;38606;52.986;6.980;2022-11-11T04:06:07;29.02;;;18.83;;
52708;SDS011;38606;52.986;6.980;2022-11-11T04:08:52;32.63;;;18.55;;
52708;SDS011;38606;52.986;6.980;2022-11-11T04:11:37;29.40;;;17.92;;
52708;SDS011;38606;52.986;6.980;2022-11-11T04:14:09;35.30;;;18.30;;
52708;SDS011;38606;52.986;6.980;2022-11-11T04:16:55;36.72;;;19.52;;
52708;SDS011;38606;52.986;6.980;2022-11-11T04:19:21;34.83;;;19.65;;
52708;SDS011;38606;52.986;6.980;2022-11-11T04:22:06;28.75;;;18.95;;
52708;SDS011;38606;52.986;6.980;2022-11-11T04:24:31;31.73;;;18.58;;
52708;SDS011;38606;52.986;6.980;2022-11-11T04:27:16;32.17;;;20.08;;
52708;SDS011;38606;52.986;6.980;2022-11-11T04:29:43;32.88;;;20.15;;
52708;SDS011;38606;52.986;6.980;2022-11-11T04:32:11;33.50;;;20.20;;
52708;SDS011;38606;52.986;6.980;2022-11-11T04:34:58;36.42;;;20.15;;
52708;SDS011;38606;52.986;6.980;2022-11-11T04:37:26;41.88;;;21.38;;
52708;SDS011;38606;52.986;6.980;2022-11-11T04:39:54;31.58;;;20.63;;
52708;SDS011;38606;52.986;6.980;2022-11-11T04:42:38;37.92;;;20.90;;
52708;SDS011;38606;52.986;6.980;2022-11-11T04:45:04;30.17;;;19.88;;
52708;SDS011;38606;52.986;6.980;2022-11-11T04:47:51;38.90;;;21.75;;
52708;SDS011;38606;52.986;6.980;2022-11-11T04:50:17;35.83;;;20.83;;
52708;SDS011;38606;52.986;6.980;2022-11-11T04:52:43;37.95;;;21.38;;
52708;SDS011;38606;52.986;6.980;2022-11-11T04:55:09;37.03;;;20.83;;
52708;SDS011;38606;52.986;6.980;2022-11-11T04:58:04;39.72;;;22.08;;
52708;SDS011;38606;52.986;6.980;2022-11-11T05:00:29;31.50;;;20.27;;
52708;SDS011;38606;52.986;6.980;2022-11-11T05:02:55;37.75;;;21.48;;
52708;SDS011;38606;52.986;6.980;2022-11-11T05:05:50;37.22;;;22.45;;
52708;SDS011;38606;52.986;6.980;2022-11-11T05:08:35;34.65;;;21.38;;
52708;SDS011;38606;52.986;6.980;2022-11-11T05:11:22;36.00;;;21.75;;
52708;SDS011;38606;52.986;6.980;2022-11-11T05:13:48;35.58;;;21.73;;
52708;SDS011;38606;52.986;6.980;2022-11-11T05:16:35;36.65;;;21.42;;
52708;SDS011;38606;52.986;6.980;2022-11-11T05:19:22;34.50;;;21.35;;
52708;SDS011;38606;52.986;6.980;2022-11-11T05:24:52;33.45;;;20.50;;
52708;SDS011;38606;52.986;6.980;2022-11-11T05:27:37;41.72;;;21.88;;
52708;SDS011;38606;52.986;6.980;2022-11-11T05:30:04;41.05;;;21.42;;
52708;SDS011;38606;52.986;6.980;2022-11-11T05:32:31;35.85;;;21.13;;
52708;SDS011;38606;52.986;6.980;2022-11-11T05:34:57;36.92;;;20.65;;
52708;SDS011;38606;52.986;6.980;2022-11-11T05:37:22;32.15;;;20.50;;
52708;SDS011;38606;52.986;6.980;2022-11-11T05:39:48;34.13;;;20.48;;
52708;SDS011;38606;52.986;6.980;2022-11-11T05:42:14;37.78;;;20.60;;
52708;SDS011;38606;52.986;6.980;2022-11-11T05:44:40;40.67;;;21.13;;
52708;SDS011;38606;52.986;6.980;2022-11-11T05:47:06;34.30;;;20.70;;
52708;SDS011;38606;52.986;6.980;2022-11-11T05:49:32;35.47;;;20.85;;
52708;SDS011;38606;52.986;6.980;2022-11-11T05:51:58;38.30;;;21.75;;
52708;SDS011;38606;52.986;6.980;2022-11-11T05:54:24;33.17;;;20.48;;
52708;SDS011;38606;52.986;6.980;2022-11-11T05:56:50;38.80;;;20.20;;
52708;SDS011;38606;52.986;6.980;2022-11-11T05:59:16;33.05;;;20.20;;
52708;SDS011;38606;52.986;6.980;2022-11-11T06:01:42;35.47;;;20.00;;
52708;SDS011;38606;52.986;6.980;2022-11-11T06:04:07;38.15;;;20.90;;
52708;SDS011;38606;52.986;6.980;2022-11-11T06:06:34;29.92;;;19.70;;
52708;SDS011;38606;52.986;6.980;2022-11-11T06:09:00;37.58;;;19.48;;
52708;SDS011;38606;52.986;6.980;2022-11-11T06:11:26;34.55;;;19.83;;
52708;SDS011;38606;52.986;6.980;2022-11-11T06:13:52;39.25;;;20.35;;
52708;SDS011;38606;52.986;6.980;2022-11-11T06:16:19;30.73;;;19.15;;
52708;SDS011;38606;52.986;6.980;2022-11-11T06:18:44;37.83;;;20.70;;
52708;SDS011;38606;52.986;6.980;2022-11-11T06:21:11;34.40;;;20.00;;
52708;SDS011;38606;52.986;6.980;2022-11-11T06:23:36;33.17;;;19.83;;
52708;SDS011;38606;52.986;6.980;2022-11-11T06:26:02;36.38;;;19.27;;
52708;SDS011;38606;52.986;6.980;2022-11-11T06:28:41;30.95;;;19.50;;
52708;SDS011;38606;52.986;6.980;2022-11-11T06:31:08;33.15;;;19.90;;
52708;SDS011;38606;52.986;6.980;2022-11-11T06:33:35;29.48;;;19.52;;
52708;SDS011;38606;52.986;6.980;2022-11-11T06:36:02;30.73;;;18.65;;
52708;SDS011;38606;52.986;6.980;2022-11-11T06:38:29;27.42;;;18.05;;
52708;SDS011;38606;52.986;6.980;2022-11-11T06:40:55;35.17;;;18.77;;
52708;SDS011;38606;52.986;6.980;2022-11-11T06:43:21;37.60;;;19.63;;
52708;SDS011;38606;52.986;6.980;2022-11-11T06:45:51;33.13;;;19.02;;
52708;SDS011;38606;52.986;6.980;2022-11-11T06:48:18;30.02;;;18.23;;
52708;SDS011;38606;52.986;6.980;2022-11-11T06:50:44;29.65;;;17.80;;
52708;SDS011;38606;52.986;6.980;2022-11-11T06:53:11;33.88;;;18.20;;
52708;SDS011;38606;52.986;6.980;2022-11-11T06:55:37;35.28;;;19.63;;
52708;SDS011;38606;52.986;6.980;2022-11-11T06:58:06;31.95;;;18.95;;
52708;SDS011;38606;52.986;6.980;2022-11-11T07:00:33;32.15;;;18.23;;
52708;SDS011;38606;52.986;6.980;2022-11-11T07:03:00;33.50;;;17.88;;
52708;SDS011;38606;52.986;6.980;2022-11-11T07:05:26;34.53;;;18.98;;
52708;SDS011;38606;52.986;6.980;2022-11-11T07:07:52;28.73;;;18.30;;
52708;SDS011;38606;52.986;6.980;2022-11-11T07:10:17;28.55;;;17.73;;
52708;SDS011;38606;52.986;6.980;2022-11-11T07:12:43;34.83;;;18.30;;
52708;SDS011;38606;52.986;6.980;2022-11-11T07:15:09;31.88;;;18.52;;
52708;SDS011;38606;52.986;6.980;2022-11-11T07:17:35;29.50;;;17.45;;
52708;SDS011;38606;52.986;6.980;2022-11-11T07:20:00;28.30;;;17.23;;
52708;SDS011;38606;52.986;6.980;2022-11-11T07:22:26;31.90;;;17.40;;
52708;SDS011;38606;52.986;6.980;2022-11-11T07:24:52;32.47;;;17.77;;
52708;SDS011;38606;52.986;6.980;2022-11-11T07:27:18;27.48;;;17.55;;
52708;SDS011;38606;52.986;6.980;2022-11-11T07:29:43;33.63;;;17.02;;
52708;SDS011;38606;52.986;6.980;2022-11-11T07:32:09;30.00;;;17.58;;
52708;SDS011;38606;52.986;6.980;2022-11-11T07:34:34;28.15;;;17.42;;
52708;SDS011;38606;52.986;6.980;2022-11-11T07:37:00;30.85;;;18.00;;
52708;SDS011;38606;52.986;6.980;2022-11-11T07:39:26;30.98;;;17.88;;
52708;SDS011;38606;52.986;6.980;2022-11-11T07:41:51;31.80;;;17.27;;
52708;SDS011;38606;52.986;6.980;2022-11-11T07:44:17;29.00;;;16.88;;
52708;SDS011;38606;52.986;6.980;2022-11-11T07:46:43;28.02;;;16.55;;
52708;SDS011;38606;52.986;6.980;2022-11-11T07:49:08;27.73;;;16.90;;
52708;SDS011;38606;52.986;6.980;2022-11-11T07:51:34;30.08;;;16.77;;
52708;SDS011;38606;52.986;6.980;2022-11-11T07:54:00;26.10;;;16.38;;
52708;SDS011;38606;52.986;6.980;2022-11-11T07:56:25;36.00;;;17.67;;
52708;SDS011;38606;52.986;6.980;2022-11-11T07:58:51;31.98;;;16.30;;
52708;SDS011;38606;52.986;6.980;2022-11-11T08:01:17;31.67;;;17.15;;
52708;SDS011;38606;52.986;6.980;2022-11-11T08:03:43;25.77;;;15.85;;
52708;SDS011;38606;52.986;6.980;2022-11-11T08:06:15;28.48;;;16.15;;
52708;SDS011;38606;52.986;6.980;2022-11-11T08:08:42;34.08;;;16.58;;
52708;SDS011;38606;52.986;6.980;2022-11-11T08:11:07;27.98;;;16.17;;
52708;SDS011;38606;52.986;6.980;2022-11-11T08:13:33;28.95;;;16.90;;
52708;SDS011;38606;52.986;6.980;2022-11-11T08:18:34;29.08;;;16.08;;
52708;SDS011;38606;52.986;6.980;2022-11-11T08:21:00;32.95;;;16.52;;
52708;SDS011;38606;52.986;6.980;2022-11-11T08:23:28;32.55;;;15.90;;
52708;SDS011;38606;52.986;6.980;2022-11-11T08:25:57;28.13;;;16.67;;
52708;SDS011;38606;52.986;6.980;2022-11-11T08:28:24;32.30;;;16.55;;
52708;SDS011;38606;52.986;6.980;2022-11-11T08:30:50;23.60;;;14.93;;
52708;SDS011;38606;52.986;6.980;2022-11-11T08:33:16;27.75;;;14.85;;
52708;SDS011;38606;52.986;6.980;2022-11-11T08:35:42;28.63;;;14.55;;
52708;SDS011;38606;52.986;6.980;2022-11-11T08:38:07;30.02;;;15.10;;
52708;SDS011;38606;52.986;6.980;2022-11-11T08:40:33;30.80;;;15.60;;
52708;SDS011;38606;52.986;6.980;2022-11-11T08:42:59;27.85;;;15.43;;
52708;SDS011;38606;52.986;6.980;2022-11-11T08:45:25;25.67;;;15.88;;
52708;SDS011;38606;52.986;6.980;2022-11-11T08:47:51;28.63;;;15.52;;
52708;SDS011;38606;52.986;6.980;2022-11-11T08:50:17;27.50;;;14.70;;
52708;SDS011;38606;52.986;6.980;2022-11-11T08:52:46;24.67;;;14.15;;
52708;SDS011;38606;52.986;6.980;2022-11-11T08:55:13;23.95;;;14.95;;
52708;SDS011;38606;52.986;6.980;2022-11-11T08:57:39;29.67;;;15.88;;
52708;SDS011;38606;52.986;6.980;2022-11-11T09:00:05;25.60;;;15.57;;
52708;SDS011;38606;52.986;6.980;2022-11-11T09:02:32;29.42;;;15.07;;
52708;SDS011;38606;52.986;6.980;2022-11-11T09:04:58;25.35;;;14.32;;
52708;SDS011;38606;52.986;6.980;2022-11-11T09:07:23;24.25;;;15.40;;
52708;SDS011;38606;52.986;6.980;2022-11-11T09:09:50;23.02;;;13.85;;
52708;SDS011;38606;52.986;6.980;2022-11-11T09:12:16;29.27;;;14.85;;
52708;SDS011;38606;52.986;6.980;2022-11-11T09:14:41;29.33;;;14.38;;
52708;SDS011;38606;52.986;6.980;2022-11-11T09:17:07;26.10;;;13.95;;
52708;SDS011;38606;52.986;6.980;2022-11-11T09:19:33;28.65;;;13.60;;
52708;SDS011;38606;52.986;6.980;2022-11-11T09:21:59;26.25;;;14.23;;
52708;SDS011;38606;52.986;6.980;2022-11-11T09:24:24;24.45;;;13.57;;
52708;SDS011;38606;52.986;6.980;2022-11-11T09:26:50;23.90;;;13.40;;
52708;SDS011;38606;52.986;6.980;2022-11-11T09:29:16;22.60;;;12.75;;
52708;SDS011;38606;52.986;6.980;2022-11-11T09:31:42;25.17;;;13.60;;
52708;SDS011;38606;52.986;6.980;2022-11-11T09:34:09;20.85;;;12.63;;
52708;SDS011;38606;52.986;6.980;2022-11-11T09:36:35;21.25;;;12.93;;
52708;SDS011;38606;52.986;6.980;2022-11-11T09:39:00;21.92;;;12.98;;
52708;SDS011;38606;52.986;6.980;2022-11-11T09:47:13;19.63;;;12.60;;
52708;SDS011;38606;52.986;6.980;2022-11-11T09:49:57;21.02;;;12.40;;
52708;SDS011;38606;52.986;6.980;2022-11-11T09:52:30;20.52;;;12.13;;
52708;SDS011;38606;52.986;6.980;2022-11-11T09:55:05;23.83;;;11.48;;
52708;SDS011;38606;52.986;6.980;2022-11-11T09:57:42;22.27;;;13.02;;
52708;SDS011;38606;52.986;6.980;2022-11-11T10:02:45;17.48;;;11.70;;
52708;SDS011;38606;52.986;6.980;2022-11-11T10:05:16;18.88;;;11.75;;
52708;SDS011;38606;52.986;6.980;2022-11-11T10:07:55;22.83;;;13.07;;
52708;SDS011;38606;52.986;6.980;2022-11-11T10:10:45;24.05;;;12.48;;
52708;SDS011;38606;52.986;6.980;2022-11-11T10:13:23;19.08;;;11.85;;
52708;SDS011;38606;52.986;6.980;2022-11-11T10:16:03;20.65;;;12.43;;
52708;SDS011;38606;52.986;6.980;2022-11-11T10:19:16;19.02;;;11.88;;
52708;SDS011;38606;52.986;6.980;2022-11-11T10:22:01;16.83;;;11.60;;
52708;SDS011;38606;52.986;6.980;2022-11-11T10:24:44;21.02;;;12.27;;
52708;SDS011;38606;52.986;6.980;2022-11-11T10:27:26;18.55;;;11.38;;
52708;SDS011;38606;52.986;6.980;2022-11-11T10:29:52;14.30;;;11.15;;
52708;SDS011;38606;52.986;6.980;2022-11-11T10:32:28;20.35;;;11.88;;
52708;SDS011;38606;52.986;6.980;2022-11-11T10:34:59;20.92;;;11.40;;
52708;SDS011;38606;52.986;6.980;2022-11-11T10:37:45;17.85;;;11.25;;
52708;SDS011;38606;52.986;6.980;2022-11-11T10:40:17;20.35;;;11.55;;
52708;SDS011;38606;52.986;6.980;2022-11-11T10:42:57;18.75;;;13.02;;
52708;SDS011;38606;52.986;6.980;2022-11-11T10:45:26;22.85;;;13.15;;
52708;SDS011;38606;52.986;6.980;2022-11-11T10:47:59;23.83;;;13.23;;
52708;SDS011;38606;52.986;6.980;2022-11-11T10:53:24;22.92;;;14.60;;
52708;SDS011;38606;52.986;6.980;2022-11-11T10:56:04;23.98;;;14.23;;
52708;SDS011;38606;52.986;6.980;2022-11-11T10:58:54;26.27;;;13.77;;
52708;SDS011;38606;52.986;6.980;2022-11-11T11:02:05;24.50;;;14.98;;
52708;SDS011;38606;52.986;6.980;2022-11-11T11:06:47;28.02;;;15.27;;
52708;SDS011;38606;52.986;6.980;2022-11-11T11:09:27;28.27;;;16.23;;
52708;SDS011;38606;52.986;6.980;2022-11-11T11:12:00;20.27;;;14.68;;
52708;SDS011;38606;52.986;6.980;2022-11-11T11:14:33;26.40;;;15.75;;
52708;SDS011;38606;52.986;6.980;2022-11-11T11:17:07;26.70;;;15.07;;
52708;SDS011;38606;52.986;6.980;2022-11-11T11:19:39;24.13;;;15.00;;
52708;SDS011;38606;52.986;6.980;2022-11-11T11:22:05;24.65;;;14.40;;
52708;SDS011;38606;52.986;6.980;2022-11-11T11:24:31;20.75;;;14.60;;
52708;SDS011;38606;52.986;6.980;2022-11-11T11:27:03;21.00;;;14.18;;
52708;SDS011;38606;52.986;6.980;2022-11-11T11:29:32;23.25;;;14.15;;
52708;SDS011;38606;52.986;6.980;2022-11-11T11:32:10;22.23;;;14.40;;
52708;SDS011;38606;52.986;6.980;2022-11-11T11:34:42;21.80;;;14.45;;
52708;SDS011;38606;52.986;6.980;2022-11-11T11:37:13;21.20;;;14.32;;
52708;SDS011;38606;52.986;6.980;2022-11-11T11:39:39;26.05;;;14.23;;
52708;SDS011;38606;52.986;6.980;2022-11-11T11:42:05;22.83;;;14.07;;
52708;SDS011;38606;52.986;6.980;2022-11-11T11:55:39;20.33;;;14.10;;
52708;SDS011;38606;52.986;6.980;2022-11-11T12:01:05;19.35;;;12.77;;
52708;SDS011;38606;52.986;6.980;2022-11-11T12:06:35;21.45;;;13.18;;
52708;SDS011;38606;52.986;6.980;2022-11-11T12:09:49;20.17;;;13.43;;
52708;SDS011;38606;52.986;6.980;2022-11-11T12:17:39;19.38;;;12.50;;
52708;SDS011;38606;52.986;6.980;2022-11-11T12:20:26;17.73;;;12.15;;
52708;SDS011;38606;52.986;6.980;2022-11-11T12:22:59;20.58;;;13.07;;
52708;SDS011;38606;52.986;6.980;2022-11-11T12:26:06;17.52;;;11.40;;
52708;SDS011;38606;52.986;6.980;2022-11-11T12:29:06;18.33;;;12.15;;
52708;SDS011;38606;52.986;6.980;2022-11-11T12:37:04;17.48;;;12.70;;
52708;SDS011;38606;52.986;6.980;2022-11-11T12:48:31;16.27;;;11.63;;
52708;SDS011;38606;52.986;6.980;2022-11-11T12:54:39;15.93;;;11.77;;
52708;SDS011;38606;52.986;6.980;2022-11-11T12:57:06;15.50;;;10.93;;
52708;SDS011;38606;52.986;6.980;2022-11-11T13:15:43;17.25;;;11.20;;
52708;SDS011;38606;52.986;6.980;2022-11-11T13:18:10;16.02;;;10.95;;
52708;SDS011;38606;52.986;6.980;2022-11-11T13:23:16;14.10;;;11.35;;
52708;SDS011;38606;52.986;6.980;2022-11-11T13:25:44;21.65;;;12.20;;
52708;SDS011;38606;52.986;6.980;2022-11-11T13:28:14;16.05;;;11.45;;
52708;SDS011;38606;52.986;6.980;2022-11-11T13:35:57;17.45;;;10.27;;
52708;SDS011;38606;52.986;6.980;2022-11-11T13:38:29;12.93;;;9.38;;
52708;SDS011;38606;52.986;6.980;2022-11-11T13:41:09;14.93;;;9.13;;
52708;SDS011;38606;52.986;6.980;2022-11-11T13:46:06;13.40;;;9.40;;
52708;SDS011;38606;52.986;6.980;2022-11-11T13:48:55;13.50;;;9.63;;
52708;SDS011;38606;52.986;6.980;2022-11-11T13:51:24;14.05;;;8.93;;
52708;SDS011;38606;52.986;6.980;2022-11-11T13:53:50;14.52;;;10.07;;
52708;SDS011;38606;52.986;6.980;2022-11-11T13:59:13;12.90;;;8.52;;
52708;SDS011;38606;52.986;6.980;2022-11-11T14:01:49;14.93;;;8.93;;
52708;SDS011;38606;52.986;6.980;2022-11-11T14:05:33;12.15;;;9.35;;
52708;SDS011;38606;52.986;6.980;2022-11-11T14:12:44;12.25;;;9.63;;
52708;SDS011;38606;52.986;6.980;2022-11-11T14:17:56;16.63;;;10.68;;
52708;SDS011;38606;52.986;6.980;2022-11-11T14:28:31;18.20;;;11.20;;
52708;SDS011;38606;52.986;6.980;2022-11-11T14:36:26;14.57;;;10.38;;
52708;SDS011;38606;52.986;6.980;2022-11-11T14:49:50;16.20;;;10.93;;
52708;SDS011;38606;52.986;6.980;2022-11-11T14:53:00;15.82;;;11.32;;
52708;SDS011;38606;52.986;6.980;2022-11-11T14:55:20;19.65;;;12.02;;
52708;SDS011;38606;52.986;6.980;2022-11-11T15:00:24;15.93;;;10.93;;
52708;SDS011;38606;52.986;6.980;2022-11-11T15:05:52;17.02;;;10.98;;
52708;SDS011;38606;52.986;6.980;2022-11-11T15:08:22;15.52;;;10.63;;
52708;SDS011;38606;52.986;6.980;2022-11-11T15:16:54;17.83;;;11.05;;
52708;SDS011;38606;52.986;6.980;2022-11-11T15:25:44;14.57;;;9.63;;
52708;SDS011;38606;52.986;6.980;2022-11-11T15:38:45;18.00;;;10.25;;
52708;SDS011;38606;52.986;6.980;2022-11-11T15:41:24;15.25;;;9.52;;
52708;SDS011;38606;52.986;6.980;2022-11-11T15:43:53;16.80;;;10.65;;
52708;SDS011;38606;52.986;6.980;2022-11-11T15:46:26;16.77;;;10.63;;
52708;SDS011;38606;52.986;6.980;2022-11-11T15:48:53;19.17;;;11.05;;
52708;SDS011;38606;52.986;6.980;2022-11-11T15:51:29;14.77;;;10.43;;
52708;SDS011;38606;52.986;6.980;2022-11-11T15:54:13;16.63;;;10.60;;
52708;SDS011;38606;52.986;6.980;2022-11-11T15:56:43;19.48;;;10.32;;
52708;SDS011;38606;52.986;6.980;2022-11-11T15:59:16;17.67;;;10.95;;
52708;SDS011;38606;52.986;6.980;2022-11-11T16:01:42;18.13;;;10.98;;
52708;SDS011;38606;52.986;6.980;2022-11-11T16:04:08;18.98;;;10.52;;
52708;SDS011;38606;52.986;6.980;2022-11-11T16:06:37;18.55;;;10.70;;
52708;SDS011;38606;52.986;6.980;2022-11-11T16:09:03;18.20;;;10.55;;
52708;SDS011;38606;52.986;6.980;2022-11-11T16:11:29;16.20;;;10.27;;
52708;SDS011;38606;52.986;6.980;2022-11-11T16:13:57;20.20;;;10.63;;
52708;SDS011;38606;52.986;6.980;2022-11-11T16:16:31;16.10;;;10.57;;
52708;SDS011;38606;52.986;6.980;2022-11-11T16:21:37;15.30;;;10.68;;
52708;SDS011;38606;52.986;6.980;2022-11-11T16:26:55;18.45;;;11.20;;
52708;SDS011;38606;52.986;6.980;2022-11-11T16:29:22;17.85;;;10.68;;
52708;SDS011;38606;52.986;6.980;2022-11-11T16:31:51;16.30;;;10.52;;
52708;SDS011;38606;52.986;6.980;2022-11-11T16:37:08;19.17;;;11.00;;
52708;SDS011;38606;52.986;6.980;2022-11-11T16:39:35;16.63;;;10.35;;
52708;SDS011;38606;52.986;6.980;2022-11-11T16:42:05;17.25;;;11.05;;
52708;SDS011;38606;52.986;6.980;2022-11-11T16:50:19;19.45;;;11.40;;
52708;SDS011;38606;52.986;6.980;2022-11-11T16:52:51;15.98;;;10.60;;
52708;SDS011;38606;52.986;6.980;2022-11-11T16:55:26;14.32;;;9.70;;
52708;SDS011;38606;52.986;6.980;2022-11-11T16:57:55;15.98;;;10.35;;
52708;SDS011;38606;52.986;6.980;2022-11-11T17:00:24;16.48;;;10.70;;
52708;SDS011;38606;52.986;6.980;2022-11-11T17:05:53;18.48;;;10.98;;
52708;SDS011;38606;52.986;6.980;2022-11-11T17:11:01;13.82;;;8.55;;
52708;SDS011;38606;52.986;6.980;2022-11-11T17:13:28;13.85;;;8.20;;
52708;SDS011;38606;52.986;6.980;2022-11-11T17:15:54;13.25;;;7.70;;
52708;SDS011;38606;52.986;6.980;2022-11-11T17:18:22;12.05;;;7.38;;
52708;SDS011;38606;52.986;6.980;2022-11-11T17:20:49;17.33;;;8.43;;
52708;SDS011;38606;52.986;6.980;2022-11-11T17:23:18;16.80;;;8.13;;
52708;SDS011;38606;52.986;6.980;2022-11-11T17:25:43;15.82;;;8.15;;
52708;SDS011;38606;52.986;6.980;2022-11-11T17:28:09;15.93;;;8.18;;
52708;SDS011;38606;52.986;6.980;2022-11-11T17:30:35;16.35;;;7.53;;
52708;SDS011;38606;52.986;6.980;2022-11-11T17:33:01;15.60;;;8.30;;
52708;SDS011;38606;52.986;6.980;2022-11-11T17:35:28;13.07;;;7.70;;
52708;SDS011;38606;52.986;6.980;2022-11-11T17:37:53;14.52;;;8.27;;